Time;durP1;ratioP1;P1;durP2;ratioP2;P2;SDS_P1;SDS_P2;PMS_P1;PMS_P2;Temp;Humidity;BMP_temperature;BMP_pressure;BME280_temperature;BME280_humidity;BME280_pressure;Samples;Min_cycle;Max_cycle;Signal;HPM_P1;HPM_P2
2022/03/19 00:00:25;;;;;;;26.45;5.63;;;7.50;82.20;;;;;;4936427;29;20048;-69
2022/03/19 00:02:52;;;;;;;24.25;4.55;;;7.50;82.20;;;;;;4920199;29;20063;-69
2022/03/19 00:05:21;;;;;;;20.48;5.13;;;7.50;82.20;;;;;;4918320;29;20052;-68
2022/03/19 00:07:49;;;;;;;27.50;5.63;;;7.40;82.20;;;;;;4909911;29;20063;-68
2022/03/19 00:10:18;;;;;;;18.27;5.25;;;7.40;82.20;;;;;;4937419;29;20047;-69
2022/03/19 00:12:48;;;;;;;19.33;5.38;;;7.30;82.40;;;;;;4937108;29;20044;-69
2022/03/19 00:15:19;;;;;;;25.65;5.25;;;7.30;82.50;;;;;;4937317;29;20398;-68
2022/03/19 00:17:47;;;;;;;22.25;6.95;;;7.30;82.50;;;;;;4937125;29;20063;-68
2022/03/19 00:20:14;;;;;;;26.48;6.10;;;7.30;82.60;;;;;;4936320;29;20052;-68
2022/03/19 00:22:43;;;;;;;22.55;5.57;;;7.30;82.70;;;;;;4937248;29;20051;-69
2022/03/19 00:25:12;;;;;;;17.65;5.53;;;7.20;82.70;;;;;;4936383;29;20056;-69
2022/03/19 00:27:42;;;;;;;22.08;5.88;;;7.20;82.80;;;;;;4937422;29;20055;-68
2022/03/19 00:30:10;;;;;;;26.48;6.28;;;7.10;82.90;;;;;;4936154;29;20054;-68
2022/03/19 00:32:38;;;;;;;27.27;6.15;;;7.10;83.00;;;;;;4937035;29;20075;-69
2022/03/19 00:35:07;;;;;;;27.15;7.22;;;7.10;83.10;;;;;;4930804;29;20052;-69
2022/03/19 00:37:49;;;;;;;18.25;6.07;;;7.20;83.20;;;;;;4901292;29;20044;-68
2022/03/19 00:40:19;;;;;;;26.50;6.78;;;7.10;83.10;;;;;;4935560;29;20067;-68
2022/03/19 00:42:50;;;;;;;20.00;5.90;;;7.10;83.10;;;;;;4936785;29;20066;-69
2022/03/19 00:45:18;;;;;;;23.90;6.50;;;7.00;83.30;;;;;;4936407;29;20052;-68
2022/03/19 00:47:46;;;;;;;23.75;6.53;;;7.00;83.30;;;;;;4936387;29;20082;-68
2022/03/19 00:50:14;;;;;;;23.73;6.68;;;6.90;83.40;;;;;;4936403;29;20055;-68
2022/03/19 00:52:42;;;;;;;28.55;7.10;;;6.90;83.40;;;;;;4936742;29;20490;-68
2022/03/19 00:55:09;;;;;;;15.07;5.95;;;6.90;83.40;;;;;;4936228;29;20484;-68
2022/03/19 00:57:45;;;;;;;20.08;6.07;;;6.80;83.40;;;;;;4919329;29;20417;-69
2022/03/19 01:00:15;;;;;;;25.80;6.50;;;6.80;83.60;;;;;;4935555;29;20047;-69
2022/03/19 01:02:44;;;;;;;27.38;6.70;;;6.80;83.60;;;;;;4937391;29;20058;-68
2022/03/19 01:05:13;;;;;;;23.17;6.25;;;6.70;83.60;;;;;;4934626;29;20413;-68
2022/03/19 01:07:44;;;;;;;25.02;6.75;;;6.70;83.70;;;;;;4936444;29;20516;-68
2022/03/19 01:10:14;;;;;;;21.48;6.40;;;6.60;83.80;;;;;;4916215;29;20048;-68
2022/03/19 01:12:43;;;;;;;22.77;6.13;;;6.70;83.80;;;;;;4919197;29;20055;-68
2022/03/19 01:15:11;;;;;;;29.52;6.90;;;6.60;83.80;;;;;;4935087;29;20047;-68
2022/03/19 01:17:39;;;;;;;21.38;6.35;;;6.50;83.90;;;;;;4935603;29;20070;-68
2022/03/19 01:20:10;;;;;;;29.20;6.63;;;6.50;84.10;;;;;;4935978;29;20052;-68
2022/03/19 01:22:40;;;;;;;22.33;6.53;;;6.50;84.20;;;;;;4935831;29;20055;-68
2022/03/19 01:25:09;;;;;;;29.40;6.38;;;6.50;84.50;;;;;;4936169;29;20501;-68
2022/03/19 01:27:38;;;;;;;19.90;5.90;;;6.50;84.30;;;;;;4934463;29;20051;-69
2022/03/19 01:30:08;;;;;;;19.30;5.63;;;6.50;84.40;;;;;;4935463;29;20081;-68
2022/03/19 01:32:35;;;;;;;26.73;6.47;;;6.50;84.60;;;;;;4936033;29;20047;-68
2022/03/19 01:35:03;;;;;;;24.23;5.68;;;6.50;84.70;;;;;;4916816;29;20048;-68
2022/03/19 01:37:31;;;;;;;20.38;6.07;;;6.60;84.60;;;;;;4936041;29;20062;-68
2022/03/19 01:39:59;;;;;;;23.88;6.30;;;6.60;84.60;;;;;;4935410;29;20063;-68
2022/03/19 01:42:29;;;;;;;22.63;6.18;;;6.60;84.60;;;;;;4934485;29;20056;-68
2022/03/19 01:44:58;;;;;;;20.02;5.43;;;6.60;84.60;;;;;;4935390;29;20051;-68
2022/03/19 01:47:28;;;;;;;33.40;7.15;;;6.60;84.70;;;;;;4935447;29;20051;-68
2022/03/19 01:49:57;;;;;;;24.98;6.00;;;6.50;84.60;;;;;;4935391;29;20046;-68
2022/03/19 01:52:31;;;;;;;21.30;6.32;;;6.60;84.70;;;;;;4935581;29;20063;-68
2022/03/19 01:54:59;;;;;;;24.55;6.28;;;6.50;84.70;;;;;;4934863;29;20413;-68
2022/03/19 01:57:30;;;;;;;20.73;5.85;;;6.50;84.90;;;;;;4935560;29;20486;-68
2022/03/19 02:00:00;;;;;;;21.48;5.80;;;6.60;84.90;;;;;;4935108;29;20051;-68
2022/03/19 02:02:39;;;;;;;15.70;5.43;;;6.50;84.80;;;;;;4918064;29;20383;-68
2022/03/19 02:05:10;;;;;;;17.88;5.78;;;6.50;84.70;;;;;;4916253;29;20629;-68
2022/03/19 02:07:38;;;;;;;25.73;6.07;;;6.50;84.70;;;;;;4931528;29;20044;-68
2022/03/19 02:10:06;;;;;;;18.77;5.38;;;6.50;84.70;;;;;;4945610;28;20437;-69
2022/03/19 02:12:34;;;;;;;16.00;5.47;;;6.40;84.80;;;;;;4934790;29;20040;-68
2022/03/19 02:15:01;;;;;;;22.17;4.82;;;6.50;84.80;;;;;;4935048;29;20417;-68
2022/03/19 02:17:29;;;;;;;22.00;5.70;;;6.40;84.90;;;;;;4935265;29;20398;-68
2022/03/19 02:19:57;;;;;;;15.80;5.25;;;6.50;84.90;;;;;;4934902;29;20055;-68
2022/03/19 02:22:26;;;;;;;24.55;6.07;;;6.50;84.80;;;;;;4934968;29;20296;-68
2022/03/19 02:27:43;;;;;;;26.70;6.28;;;6.40;84.70;;;;;;4935091;29;20054;-68
2022/03/19 02:30:12;;;;;;;19.50;5.47;;;6.40;84.80;;;;;;4933925;29;20058;-68
2022/03/19 02:32:45;;;;;;;19.75;5.57;;;6.40;84.80;;;;;;4933790;29;20056;-68
2022/03/19 02:35:12;;;;;;;19.08;5.22;;;6.40;84.80;;;;;;4934777;29;20055;-68
2022/03/19 02:37:43;;;;;;;22.73;5.22;;;6.40;84.70;;;;;;4933729;29;20051;-68
2022/03/19 02:40:13;;;;;;;22.10;4.78;;;6.40;84.70;;;;;;4934789;29;20052;-67
2022/03/19 02:42:46;;;;;;;18.58;4.55;;;6.40;84.60;;;;;;4917610;29;20544;-67
2022/03/19 02:45:14;;;;;;;13.88;3.50;;;6.40;84.40;;;;;;4934668;29;20409;-68
2022/03/19 02:47:57;;;;;;;22.80;5.55;;;6.40;84.50;;;;;;4934367;29;20051;-68
2022/03/19 02:50:32;;;;;;;19.33;4.68;;;6.40;84.40;;;;;;4918154;29;20043;-68
2022/03/19 02:53:02;;;;;;;18.35;5.03;;;6.40;84.30;;;;;;4934445;29;20048;-67
2022/03/19 02:55:31;;;;;;;18.08;5.03;;;6.40;84.30;;;;;;4934452;29;20044;-68
2022/03/19 02:58:00;;;;;;;19.40;4.47;;;6.30;84.20;;;;;;4933539;29;20059;-67
2022/03/19 03:00:28;;;;;;;17.23;4.60;;;6.30;84.30;;;;;;4933998;29;20048;-67
2022/03/19 03:02:56;;;;;;;17.90;4.63;;;6.30;84.30;;;;;;4934273;29;20517;-67
2022/03/19 03:05:24;;;;;;;17.77;4.35;;;6.40;84.30;;;;;;4917589;29;20040;-67
2022/03/19 03:07:52;;;;;;;15.05;4.28;;;6.40;84.40;;;;;;4934372;29;20517;-67
2022/03/19 03:10:20;;;;;;;19.67;4.60;;;6.40;84.20;;;;;;4934788;29;20043;-68
2022/03/19 03:12:47;;;;;;;18.50;4.93;;;6.40;84.30;;;;;;4933982;29;20422;-67
2022/03/19 03:15:15;;;;;;;18.83;4.63;;;6.40;84.20;;;;;;4934357;29;20048;-67
2022/03/19 03:17:44;;;;;;;14.35;3.85;;;6.40;84.20;;;;;;4934488;29;20405;-67
2022/03/19 03:20:13;;;;;;;19.48;4.80;;;6.40;84.10;;;;;;4935151;29;20410;-67
2022/03/19 03:22:42;;;;;;;20.38;5.07;;;6.40;84.00;;;;;;4936215;29;20406;-67
2022/03/19 03:25:10;;;;;;;16.30;4.28;;;6.30;84.10;;;;;;4937873;29;20043;-67
2022/03/19 03:27:38;;;;;;;23.27;4.70;;;6.40;84.10;;;;;;4937345;29;20048;-67
2022/03/19 03:30:07;;;;;;;19.35;5.10;;;6.40;84.10;;;;;;4937754;29;20054;-68
2022/03/19 03:32:34;;;;;;;17.10;4.82;;;6.40;84.00;;;;;;4938080;29;20043;-68
2022/03/19 03:35:02;;;;;;;23.42;4.75;;;6.40;84.00;;;;;;4933045;29;20059;-68
2022/03/19 03:37:30;;;;;;;23.70;5.13;;;6.40;84.00;;;;;;4937818;29;20051;-67
2022/03/19 03:39:57;;;;;;;18.02;5.38;;;6.40;84.00;;;;;;4937480;29;20052;-67
2022/03/19 03:42:25;;;;;;;19.50;4.82;;;6.40;84.20;;;;;;4920655;29;20059;-67
2022/03/19 03:44:58;;;;;;;18.17;5.45;;;6.40;84.20;;;;;;4920224;29;20050;-67
2022/03/19 03:47:28;;;;;;;23.05;6.55;;;6.40;84.10;;;;;;4937537;29;20055;-67
2022/03/19 03:49:56;;;;;;;14.90;4.93;;;6.40;84.10;;;;;;4911170;29;20071;-67
2022/03/19 03:52:23;;;;;;;16.80;5.10;;;6.30;84.10;;;;;;4918603;29;20056;-67
2022/03/19 03:54:51;;;;;;;22.73;5.78;;;6.30;84.10;;;;;;4933285;29;20051;-67
2022/03/19 03:57:19;;;;;;;19.52;5.80;;;6.30;84.20;;;;;;4937598;29;20055;-67
2022/03/19 03:59:49;;;;;;;26.33;5.95;;;6.30;84.30;;;;;;4920174;29;20048;-67
2022/03/19 04:02:17;;;;;;;24.00;6.18;;;6.30;84.30;;;;;;4937223;29;20044;-67
2022/03/19 04:04:45;;;;;;;21.05;6.20;;;6.30;84.20;;;;;;4937048;29;20071;-67
2022/03/19 04:07:12;;;;;;;22.85;6.25;;;6.30;84.10;;;;;;4920568;29;20066;-67
2022/03/19 04:09:40;;;;;;;28.20;7.05;;;6.30;84.10;;;;;;4937310;29;20058;-67
2022/03/19 04:12:09;;;;;;;22.83;6.57;;;6.30;84.10;;;;;;4937229;29;20063;-69
2022/03/19 04:14:37;;;;;;;19.45;6.38;;;6.20;84.30;;;;;;4937751;29;20055;-67
2022/03/19 04:17:04;;;;;;;19.40;6.88;;;6.30;84.30;;;;;;4937531;29;20047;-68
2022/03/19 04:19:32;;;;;;;21.63;6.65;;;6.30;84.10;;;;;;4937533;29;20505;-69
2022/03/19 04:21:59;;;;;;;22.15;6.85;;;6.30;84.10;;;;;;4936296;29;20410;-67
2022/03/19 04:24:27;;;;;;;24.15;6.05;;;6.20;84.10;;;;;;4920161;29;20051;-68
2022/03/19 04:26:56;;;;;;;23.02;6.50;;;6.20;84.20;;;;;;4937140;29;20055;-66
2022/03/19 04:29:24;;;;;;;24.70;5.95;;;6.30;84.20;;;;;;4936722;29;20492;-67
2022/03/19 04:31:51;;;;;;;19.50;5.88;;;6.30;84.10;;;;;;4940869;29;20058;-67
2022/03/19 04:34:19;;;;;;;20.25;6.80;;;6.30;84.10;;;;;;4939099;29;20059;-67
2022/03/19 04:36:47;;;;;;;23.55;6.53;;;6.20;84.10;;;;;;4919697;29;20583;-67
2022/03/19 04:39:15;;;;;;;17.95;6.95;;;6.20;84.10;;;;;;4936625;29;20051;-67
2022/03/19 04:41:42;;;;;;;21.77;6.38;;;6.10;84.10;;;;;;4936232;29;20063;-67
2022/03/19 04:44:10;;;;;;;23.90;6.97;;;6.10;84.30;;;;;;4936511;29;20406;-67
2022/03/19 04:46:38;;;;;;;22.63;6.32;;;6.10;84.30;;;;;;4936946;29;20051;-67
2022/03/19 04:49:05;;;;;;;19.30;6.25;;;6.20;84.40;;;;;;4903602;29;20060;-68
2022/03/19 04:51:39;;;;;;;23.25;6.22;;;6.10;84.30;;;;;;4919770;29;20394;-67
2022/03/19 04:54:06;;;;;;;24.73;6.35;;;6.10;84.30;;;;;;4936305;29;20402;-68
2022/03/19 04:56:34;;;;;;;21.27;6.63;;;6.10;84.30;;;;;;4936471;29;20055;-67
2022/03/19 04:59:03;;;;;;;17.38;6.78;;;6.10;84.40;;;;;;4936106;29;20055;-68
2022/03/19 05:01:32;;;;;;;25.20;6.90;;;6.20;84.30;;;;;;4935956;29;20371;-68
2022/03/19 05:04:00;;;;;;;21.38;6.65;;;6.20;84.30;;;;;;4936141;29;20110;-68
2022/03/19 05:06:28;;;;;;;23.88;6.30;;;6.20;84.30;;;;;;4936271;29;20043;-68
2022/03/19 05:11:42;;;;;;;27.58;7.63;;;6.20;84.40;;;;;;4935895;29;20040;-68
2022/03/19 05:14:11;;;;;;;24.48;6.80;;;6.10;84.30;;;;;;4936441;29;20058;-68
2022/03/19 05:16:39;;;;;;;25.52;7.57;;;6.00;84.30;;;;;;4935933;29;20043;-68
2022/03/19 05:19:06;;;;;;;16.65;7.57;;;6.00;84.50;;;;;;4903309;29;20055;-68
2022/03/19 05:21:35;;;;;;;20.58;7.57;;;6.00;84.60;;;;;;4935828;29;20048;-68
2022/03/19 05:24:02;;;;;;;22.85;8.15;;;5.90;84.70;;;;;;4919198;29;20056;-68
2022/03/19 05:26:30;;;;;;;24.73;8.15;;;6.00;84.80;;;;;;4935743;29;20397;-68
2022/03/19 05:28:58;;;;;;;27.05;8.68;;;6.00;84.90;;;;;;4916397;29;20059;-68
2022/03/19 05:31:36;;;;;;;20.52;8.23;;;6.00;84.90;;;;;;4931714;29;20051;-68
2022/03/19 05:36:50;;;;;;;27.02;8.85;;;6.00;84.90;;;;;;4935454;29;20047;-68
2022/03/19 05:39:18;;;;;;;23.17;8.32;;;6.00;84.90;;;;;;4935113;29;20064;-68
2022/03/19 05:41:45;;;;;;;26.75;8.13;;;6.00;84.80;;;;;;4937630;29;20075;-68
2022/03/19 05:44:13;;;;;;;21.95;8.23;;;6.00;84.80;;;;;;4935613;29;20055;-68
2022/03/19 05:46:40;;;;;;;29.40;9.43;;;6.00;85.00;;;;;;4918339;29;20060;-68
2022/03/19 05:49:08;;;;;;;24.20;8.18;;;6.00;84.90;;;;;;4935470;29;20043;-68
2022/03/19 05:51:36;;;;;;;30.52;8.77;;;6.10;84.90;;;;;;4918029;29;20055;-68
2022/03/19 05:54:03;;;;;;;19.98;7.55;;;6.00;84.90;;;;;;4935321;29;20048;-68
2022/03/19 05:56:32;;;;;;;24.25;8.32;;;6.00;84.90;;;;;;4935335;29;20044;-68
2022/03/19 05:59:00;;;;;;;21.00;8.57;;;6.10;85.00;;;;;;4935705;29;20517;-68
2022/03/19 06:01:27;;;;;;;34.20;8.70;;;6.10;84.80;;;;;;4917997;29;20052;-68
2022/03/19 06:03:56;;;;;;;29.05;9.07;;;6.10;84.70;;;;;;4935176;29;20110;-68
2022/03/19 06:06:26;;;;;;;29.98;9.32;;;6.10;84.70;;;;;;4934970;29;20044;-68
2022/03/19 06:08:55;;;;;;;29.10;9.23;;;6.10;84.80;;;;;;4934697;29;20545;-68
2022/03/19 06:11:23;;;;;;;28.25;9.07;;;6.10;84.70;;;;;;4935070;29;20051;-68
2022/03/19 06:13:52;;;;;;;23.23;8.75;;;6.10;84.80;;;;;;4934168;29;20494;-68
2022/03/19 06:16:19;;;;;;;29.88;9.25;;;6.20;84.70;;;;;;4935077;29;20517;-68
2022/03/19 06:18:50;;;;;;;31.95;9.57;;;6.10;84.60;;;;;;4935141;29;20048;-68
2022/03/19 06:21:19;;;;;;;21.98;8.80;;;6.10;84.60;;;;;;4935162;29;20417;-69
2022/03/19 06:23:47;;;;;;;26.92;9.05;;;6.00;84.70;;;;;;4934782;29;20040;-68
2022/03/19 06:26:15;;;;;;;26.83;9.65;;;6.10;84.70;;;;;;4934433;29;20067;-69
2022/03/19 06:28:42;;;;;;;36.08;10.18;;;6.10;84.60;;;;;;4933703;29;20056;-68
2022/03/19 06:31:10;;;;;;;25.20;9.20;;;6.00;84.50;;;;;;4934693;29;20510;-68
2022/03/19 06:33:42;;;;;;;28.90;10.98;;;6.00;84.60;;;;;;4917582;29;20051;-67
2022/03/19 06:39:00;;;;;;;30.35;10.55;;;6.10;84.60;;;;;;4934905;29;20047;-68
2022/03/19 06:41:28;;;;;;;28.60;9.57;;;6.10;84.50;;;;;;4934142;29;20417;-67
2022/03/19 06:43:55;;;;;;;29.95;10.45;;;6.20;84.50;;;;;;4934602;29;20043;-68
2022/03/19 06:46:23;;;;;;;28.75;10.88;;;6.20;84.30;;;;;;4939202;29;20058;-68
2022/03/19 06:48:51;;;;;;;32.58;10.68;;;6.20;84.30;;;;;;4940846;29;20044;-68
2022/03/19 06:51:20;;;;;;;31.42;10.65;;;6.20;84.10;;;;;;4934569;29;20039;-67
2022/03/19 06:53:49;;;;;;;26.27;8.95;;;6.30;84.00;;;;;;4932767;29;20059;-67
2022/03/19 06:56:18;;;;;;;19.17;8.70;;;6.30;83.90;;;;;;4915681;29;20054;-67
2022/03/19 06:58:46;;;;;;;29.60;9.55;;;6.30;83.70;;;;;;4934610;29;20512;-67
2022/03/19 07:01:17;;;;;;;23.08;8.95;;;6.30;83.50;;;;;;4938284;29;20054;-67
2022/03/19 07:03:46;;;;;;;24.25;8.98;;;6.40;83.30;;;;;;4938312;29;20047;-67
2022/03/19 07:06:15;;;;;;;23.55;8.98;;;6.40;83.20;;;;;;4927363;29;20075;-67
2022/03/19 07:09:04;;;;;;;20.65;8.60;;;6.50;83.10;;;;;;4930726;29;20048;-67
2022/03/19 07:11:32;;;;;;;22.02;9.80;;;6.40;83.00;;;;;;4938241;29;20052;-67
2022/03/19 07:14:01;;;;;;;24.63;8.80;;;6.50;82.90;;;;;;4938567;29;20047;-67
2022/03/19 07:16:29;;;;;;;22.65;9.02;;;6.60;82.80;;;;;;4937764;29;20059;-67
2022/03/19 07:18:57;;;;;;;23.17;9.63;;;6.60;82.60;;;;;;4938514;29;20048;-67
2022/03/19 07:21:25;;;;;;;21.75;8.85;;;6.70;82.40;;;;;;4937948;29;20067;-67
2022/03/19 07:23:53;;;;;;;23.35;9.20;;;6.70;82.30;;;;;;4938415;29;20433;-67
2022/03/19 07:26:21;;;;;;;26.30;8.82;;;6.80;82.10;;;;;;4937930;29;20406;-66
2022/03/19 07:28:48;;;;;;;24.00;8.20;;;6.80;81.90;;;;;;4938135;29;20488;-67
2022/03/19 07:31:16;;;;;;;21.20;8.43;;;6.90;81.60;;;;;;4937744;29;20060;-67
2022/03/19 07:33:47;;;;;;;22.52;8.50;;;7.00;81.40;;;;;;4937854;29;20040;-67
2022/03/19 07:36:15;;;;;;;19.15;7.80;;;7.00;81.00;;;;;;4936583;29;20055;-67
2022/03/19 07:38:42;;;;;;;21.52;8.25;;;7.10;80.80;;;;;;4936256;29;20048;-67
2022/03/19 07:43:57;;;;;;;17.15;7.35;;;7.30;80.20;;;;;;4926212;29;20059;-68
2022/03/19 07:46:27;;;;;;;22.58;8.23;;;7.30;80.10;;;;;;4918593;29;20067;-68
2022/03/19 07:48:55;;;;;;;17.83;7.90;;;7.30;79.90;;;;;;4933927;29;20044;-67
2022/03/19 07:51:22;;;;;;;25.63;8.13;;;7.40;79.70;;;;;;4937310;29;20074;-67
2022/03/19 07:53:50;;;;;;;18.73;7.65;;;7.40;79.60;;;;;;4920564;29;20051;-68
2022/03/19 07:56:18;;;;;;;19.95;8.68;;;7.50;79.40;;;;;;4920575;29;20078;-67
2022/03/19 07:58:50;;;;;;;22.58;8.68;;;7.50;79.20;;;;;;4938120;29;20413;-68
2022/03/19 08:01:19;;;;;;;23.00;9.07;;;7.60;79.20;;;;;;4918487;29;20055;-68
2022/03/19 08:03:48;;;;;;;21.77;8.63;;;7.60;79.20;;;;;;4931313;29;20048;-67
2022/03/19 08:06:15;;;;;;;20.13;8.13;;;7.60;79.20;;;;;;4936897;29;20047;-67
2022/03/19 08:08:43;;;;;;;24.70;7.78;;;7.70;79.10;;;;;;4936382;29;20051;-67
2022/03/19 08:11:11;;;;;;;19.63;7.55;;;7.70;78.90;;;;;;4935851;29;20494;-66
2022/03/19 08:13:39;;;;;;;23.98;7.25;;;7.80;78.70;;;;;;4920001;29;20054;-68
2022/03/19 08:16:07;;;;;;;18.17;7.72;;;7.80;78.50;;;;;;4936215;29;20247;-68
2022/03/19 08:18:35;;;;;;;16.38;7.78;;;7.80;78.30;;;;;;4936563;29;20055;-66
2022/03/19 08:21:03;;;;;;;17.60;7.43;;;7.90;78.20;;;;;;4936653;29;20055;-67
2022/03/19 08:23:32;;;;;;;20.58;7.97;;;7.90;78.10;;;;;;4929221;29;20059;-67
2022/03/19 08:26:01;;;;;;;19.02;7.50;;;8.00;78.00;;;;;;4934040;29;20052;-67
2022/03/19 08:28:28;;;;;;;16.88;7.53;;;8.00;77.80;;;;;;4918992;29;20051;-67
2022/03/19 08:30:58;;;;;;;21.48;7.80;;;8.00;77.70;;;;;;4936121;29;20055;-68
2022/03/19 08:33:26;;;;;;;21.58;7.75;;;8.10;77.40;;;;;;4932071;29;20039;-67
2022/03/19 08:35:53;;;;;;;18.52;8.15;;;8.20;77.20;;;;;;4913412;29;20071;-67
2022/03/19 08:41:08;;;;;;;25.00;7.60;;;8.30;76.80;;;;;;4935896;29;20071;-67
2022/03/19 08:43:36;;;;;;;18.00;7.97;;;8.30;76.50;;;;;;4934462;29;20044;-67
2022/03/19 08:46:05;;;;;;;22.08;7.30;;;8.40;76.40;;;;;;4936077;29;20058;-67
2022/03/19 08:48:33;;;;;;;19.77;7.90;;;8.40;76.20;;;;;;4919521;29;20046;-66
2022/03/19 08:51:39;;;;;;;16.38;7.22;;;8.50;76.10;;;;;;4935971;29;20063;-68
2022/03/19 08:53:49;;;;;;;23.63;6.88;;;8.50;75.70;;;;;;4933583;29;20050;-67
2022/03/19 08:56:17;;;;;;;18.70;7.60;;;8.60;75.30;;;;;;4935724;29;20417;-67
2022/03/19 08:58:45;;;;;;;27.92;6.90;;;8.70;75.20;;;;;;4915422;29;20048;-68
2022/03/19 09:01:13;;;;;;;21.48;7.53;;;8.70;74.90;;;;;;4934976;29;20063;-67
2022/03/19 09:03:41;;;;;;;18.67;7.13;;;8.80;74.70;;;;;;4935453;29;20397;-67
2022/03/19 09:06:13;;;;;;;21.23;7.20;;;8.80;74.30;;;;;;4935239;29;20058;-67
2022/03/19 09:08:42;;;;;;;20.02;6.70;;;8.90;74.00;;;;;;4928344;29;20067;-67
2022/03/19 09:11:10;;;;;;;21.27;6.97;;;9.00;73.50;;;;;;4935333;29;20048;-67
2022/03/19 09:13:39;;;;;;;19.52;7.70;;;9.10;73.30;;;;;;4918193;29;20074;-67
2022/03/19 09:16:07;;;;;;;20.55;6.72;;;9.20;73.00;;;;;;4934752;29;20058;-67
2022/03/19 09:18:35;;;;;;;17.98;6.35;;;9.30;72.60;;;;;;4934855;29;20047;-67
2022/03/19 09:21:03;;;;;;;20.38;7.32;;;9.30;72.20;;;;;;4933125;29;20410;-67
2022/03/19 09:23:31;;;;;;;19.90;6.93;;;9.40;71.90;;;;;;4932610;29;20052;-69
2022/03/19 09:25:59;;;;;;;23.67;7.22;;;9.50;71.10;;;;;;4934795;29;20066;-70
2022/03/19 09:28:27;;;;;;;18.10;5.78;;;9.60;70.60;;;;;;4934456;29;20056;-68
2022/03/19 09:30:54;;;;;;;15.05;5.07;;;9.70;69.60;;;;;;4934677;29;20056;-69
2022/03/19 09:33:22;;;;;;;22.60;5.22;;;9.80;69.10;;;;;;4935035;29;20490;-70
2022/03/19 09:35:50;;;;;;;16.40;5.40;;;9.80;68.50;;;;;;4915441;29;20051;-69
2022/03/19 09:38:18;;;;;;;13.95;5.65;;;9.90;68.20;;;;;;4934284;29;20395;-69
2022/03/19 09:40:46;;;;;;;16.08;5.75;;;10.00;67.80;;;;;;4933027;29;20048;-69
2022/03/19 09:43:15;;;;;;;18.63;5.88;;;10.10;67.30;;;;;;4930950;29;20039;-70
2022/03/19 09:45:43;;;;;;;13.93;5.38;;;10.20;66.80;;;;;;4926738;29;20052;-70
2022/03/19 09:48:11;;;;;;;14.73;5.70;;;10.30;66.70;;;;;;4926343;29;20043;-70
2022/03/19 09:50:39;;;;;;;11.75;5.13;;;10.30;66.40;;;;;;4932198;29;20401;-70
2022/03/19 09:53:09;;;;;;;10.77;5.18;;;10.40;65.90;;;;;;4934956;29;20055;-71
2022/03/19 09:55:38;;;;;;;15.98;5.15;;;10.60;66.00;;;;;;4934516;29;20058;-71
2022/03/19 09:58:07;;;;;;;13.77;5.22;;;10.70;65.70;;;;;;4934623;29;20052;-71
2022/03/19 10:00:36;;;;;;;14.07;5.30;;;10.80;65.10;;;;;;4934710;29;20054;-71
2022/03/19 10:03:08;;;;;;;18.13;5.85;;;10.90;63.90;;;;;;4916549;29;20521;-70
2022/03/19 10:08:36;;;;;;;18.10;5.15;;;11.00;63.90;;;;;;4914503;29;20047;-71
2022/03/19 10:11:13;;;;;;;14.05;5.03;;;11.10;63.10;;;;;;4927529;29;20044;-70
2022/03/19 10:13:42;;;;;;;13.93;5.05;;;11.20;63.10;;;;;;4917033;29;20532;-70
2022/03/19 10:16:40;;;;;;;14.90;4.97;;;11.30;63.00;;;;;;4929536;29;20501;-70
2022/03/19 10:19:09;;;;;;;19.58;4.72;;;11.40;62.00;;;;;;4920106;29;20543;-71
2022/03/19 10:21:40;;;;;;;14.57;4.90;;;11.50;61.20;;;;;;4931470;29;20490;-70
2022/03/19 10:24:19;;;;;;;8.57;4.30;;;11.60;61.10;;;;;;4914917;29;20133;-70
2022/03/19 10:26:48;;;;;;;14.85;4.95;;;11.70;60.60;;;;;;4933722;29;20044;-69
2022/03/19 10:29:25;;;;;;;13.45;4.78;;;11.70;60.30;;;;;;4931765;29;20047;-69
2022/03/19 10:31:59;;;;;;;10.52;4.82;;;11.80;59.80;;;;;;4933192;29;20043;-69
2022/03/19 10:34:29;;;;;;;12.75;4.88;;;11.80;59.00;;;;;;4933214;29;20391;-70
2022/03/19 10:36:57;;;;;;;15.48;5.03;;;11.90;59.30;;;;;;4933257;29;20406;-70
2022/03/19 10:39:27;;;;;;;11.77;4.88;;;12.00;59.00;;;;;;4934022;29;20060;-69
2022/03/19 10:41:57;;;;;;;17.33;5.25;;;12.10;58.50;;;;;;4934379;29;20052;-69
2022/03/19 10:44:27;;;;;;;10.65;4.85;;;12.20;58.60;;;;;;4932467;29;20052;-69
2022/03/19 10:46:59;;;;;;;15.30;5.03;;;12.30;58.90;;;;;;4916611;29;20494;-69
2022/03/19 10:49:29;;;;;;;13.07;4.88;;;12.40;58.60;;;;;;4916205;29;20831;-69
2022/03/19 10:52:01;;;;;;;13.98;4.43;;;12.60;57.50;;;;;;4932414;29;20055;-69
2022/03/19 10:54:30;;;;;;;12.45;4.95;;;12.70;57.00;;;;;;4931676;29;20040;-70
2022/03/19 10:56:58;;;;;;;14.50;4.88;;;12.80;56.70;;;;;;4934149;29;20059;-69
2022/03/19 10:59:30;;;;;;;10.10;4.78;;;12.80;56.60;;;;;;4932740;29;20048;-69
2022/03/19 11:02:00;;;;;;;11.27;4.60;;;12.90;56.50;;;;;;4907697;29;20086;-69
2022/03/19 11:04:30;;;;;;;11.55;4.78;;;13.00;56.40;;;;;;4916327;29;20048;-69
2022/03/19 11:07:01;;;;;;;13.00;4.57;;;13.20;55.50;;;;;;4932377;29;20059;-68
2022/03/19 11:09:32;;;;;;;12.18;4.72;;;13.30;55.60;;;;;;4920798;29;20052;-69
2022/03/19 11:12:07;;;;;;;11.07;4.22;;;13.30;55.20;;;;;;4906903;29;20044;-69
2022/03/19 11:14:40;;;;;;;10.23;4.35;;;13.50;53.50;;;;;;4933090;29;20412;-68
2022/03/19 11:17:23;;;;;;;9.68;3.58;;;13.50;53.30;;;;;;4930626;29;20094;-69
2022/03/19 11:19:52;;;;;;;10.40;4.60;;;13.50;52.90;;;;;;4914997;29;20044;-69
2022/03/19 11:22:21;;;;;;;12.73;4.43;;;13.50;53.10;;;;;;4930122;29;20070;-69
2022/03/19 11:25:06;;;;;;;13.25;4.30;;;13.60;53.20;;;;;;4925178;29;20055;-70
2022/03/19 11:27:41;;;;;;;18.05;3.78;;;13.70;52.50;;;;;;4928898;29;20048;-69
2022/03/19 11:30:25;;;;;;;11.38;3.50;;;13.70;51.50;;;;;;4932071;29;20039;-69
2022/03/19 11:33:05;;;;;;;8.85;3.50;;;13.80;51.00;;;;;;4916027;29;20063;-69
2022/03/19 11:35:38;;;;;;;11.05;3.90;;;13.80;50.10;;;;;;4931413;29;20048;-69
2022/03/19 11:38:11;;;;;;;9.20;3.50;;;13.80;50.50;;;;;;4927747;29;20059;-69
2022/03/19 11:40:46;;;;;;;7.50;2.88;;;13.90;50.00;;;;;;4928633;29;20052;-68
2022/03/19 11:43:31;;;;;;;9.25;3.17;;;14.00;49.10;;;;;;4928300;29;20039;-68
2022/03/19 11:46:00;;;;;;;;;;;14.20;48.90;;;;;;4936845;29;20501;-68
2022/03/19 11:48:39;;;;;;;8.90;3.65;;;14.30;48.00;;;;;;4929815;29;19923;-70
2022/03/19 11:51:24;;;;;;;11.80;3.60;;;14.30;47.90;;;;;;4934624;29;20074;-68
2022/03/19 11:54:03;;;;;;;11.52;3.47;;;14.30;47.70;;;;;;4935326;29;20410;-70
2022/03/19 11:56:44;;;;;;;9.95;3.35;;;14.50;47.10;;;;;;4933321;29;20056;-68
2022/03/19 11:59:24;;;;;;;9.35;3.03;;;14.50;47.20;;;;;;4931947;29;20261;-68
2022/03/19 12:02:05;;;;;;;8.98;3.20;;;14.60;47.30;;;;;;4934701;29;20047;-69
2022/03/19 12:04:44;;;;;;;7.30;2.88;;;14.70;47.10;;;;;;4933475;29;20047;-69
2022/03/19 12:07:32;;;;;;;8.93;3.00;;;14.80;46.60;;;;;;4936656;29;20039;-69
2022/03/19 12:10:06;;;;;;;9.75;3.38;;;15.10;46.00;;;;;;4935245;29;20059;-69
2022/03/19 12:12:35;;;;;;;8.00;3.03;;;15.20;45.50;;;;;;4935718;29;20052;-69
2022/03/19 12:15:29;;;;;;;12.90;3.30;;;15.30;45.30;;;;;;4935676;29;20051;-69
2022/03/19 12:18:16;;;;;;;;;;;15.60;44.40;;;;;;4930821;29;20055;-69
2022/03/19 12:20:43;;;;;;;5.68;2.92;;;15.80;44.00;;;;;;4932474;29;19933;-69
2022/03/19 12:23:14;;;;;;;9.60;3.40;;;16.10;42.80;;;;;;4934983;29;20055;-69
2022/03/19 12:25:48;;;;;;;10.15;3.22;;;16.30;42.30;;;;;;4936646;29;20051;-69
2022/03/19 12:28:17;;;;;;;7.03;3.40;;;16.40;41.70;;;;;;4916026;29;20035;-69
2022/03/19 12:30:45;;;;;;;8.18;3.05;;;16.60;41.60;;;;;;4932156;29;20058;-70
2022/03/19 12:33:12;;;;;;;9.45;3.05;;;16.80;42.50;;;;;;4933012;29;20047;-69
2022/03/19 12:35:47;;;;;;;8.82;2.95;;;17.00;41.80;;;;;;4927201;29;20048;-69
2022/03/19 12:38:32;;;;;;;9.95;3.08;;;17.30;40.90;;;;;;4910479;29;20052;-70
2022/03/19 12:43:45;;;;;;;13.27;3.63;;;17.60;39.90;;;;;;4933248;29;20421;-70
2022/03/19 12:46:35;;;;;;;8.30;3.25;;;17.80;39.50;;;;;;4934495;29;20409;-69
2022/03/19 12:49:06;;;;;;;11.02;3.55;;;18.00;39.60;;;;;;4931458;29;20044;-69
2022/03/19 12:51:37;;;;;;;7.85;3.08;;;18.30;40.00;;;;;;4935548;29;20047;-69
2022/03/19 12:54:25;;;;;;;10.75;3.08;;;18.70;39.40;;;;;;4918407;29;20039;-70
2022/03/19 12:56:57;;;;;;;7.00;3.00;;;19.10;38.30;;;;;;4933558;29;20058;-69
2022/03/19 12:59:27;;;;;;;11.55;3.03;;;19.40;37.40;;;;;;4934260;29;20132;-69
2022/03/19 13:01:56;;;;;;;9.73;3.22;;;19.40;36.40;;;;;;4934550;29;20048;-69
2022/03/19 13:04:30;;;;;;;10.13;3.28;;;19.30;36.50;;;;;;4915387;29;20055;-69
2022/03/19 13:06:59;;;;;;;6.22;2.70;;;19.30;37.00;;;;;;4911622;29;20055;-69
2022/03/19 13:09:39;;;;;;;8.48;3.08;;;19.50;36.20;;;;;;4934812;29;20051;-69
2022/03/19 13:12:10;;;;;;;7.30;3.00;;;19.50;36.50;;;;;;4935464;29;20054;-69
2022/03/19 13:14:37;;;;;;;10.77;3.20;;;19.60;36.60;;;;;;4935607;29;20055;-69
2022/03/19 13:17:05;;;;;;;7.88;3.35;;;19.70;36.30;;;;;;4932542;29;20391;-69
2022/03/19 13:19:33;;;;;;;9.02;3.33;;;19.80;36.60;;;;;;4934091;29;20054;-69
2022/03/19 13:22:03;;;;;;;9.70;3.40;;;20.10;35.60;;;;;;4934830;29;20067;-68